Main page
METAR-TAF:

METAR-TAF

Airports :

Asaluyeh, Iran

Persian Gulf Airport

latitude: 27-22-46N, longitude: 52-44-15E, elevation: 8 m

Current weather observation

The report was made 1 hour and 3 minutes ago, at 19:30 UTC
Wind 4 kt from the Southwest
Temperature 28°C
Humidity 66%
Pressure 1006 hPa
Visibility: 6000 m
Few clouds at a height of 3500 ft
Scattered clouds at a height of 9000 ft
Broken clouds at a height of 20000 ft

METAR: OIBP 301930Z 23004KT 6000 FEW035 SCT090 BKN200 28/21 Q1006 A2972

Time: 01:03 (20:33 UTC)


TAF: missing

Weather observations and forecasts of more than 4000 airports (METAR and TAF reports).

The available stations are represented by yellow and red dots on the map.

Hover mouse over dot to see the name of the station.

Then click to see weather observations and forecasts.

To change the map : click on the green buttons with a black cross to zoom in, on the green button with a dash to zoom out, or on the green arrows for adjacent maps.


METAR-TAF: